<?xml version="1.0" encoding="UTF-8" standalone="no" ?>
<gpx xmlns="http://www.topografix.com/GPX/1/1" xmlns:xsi="http://www.w3.org/2001/XMLSchema-instance" xsi:schemaLocation="http://www.topografix.com/GPX/1/1 http://www.topografix.com/GPX/1/1/gpx.xsd" version="1.1" creator="VisuGPX - https://www.visugpx.com">
  <metadata>
    <name>ccv_27mars_55km</name>
  </metadata>
  <trk>
    <name><![CDATA[Toaster Course]]></name>
    <trkseg>
      <trkpt lat="48.63427" lon="6.3131">
        <ele>206</ele>
        <time>2011-03-26T00:00:00Z</time>
      </trkpt>
      <trkpt lat="48.63428" lon="6.31306">
        <ele>205</ele>
        <time>2011-03-26T00:00:00Z</time>
      </trkpt>
      <trkpt lat="48.63393" lon="6.31285">
        <ele>205</ele>
        <time>2011-03-26T00:00:05Z</time>
      </trkpt>
      <trkpt lat="48.63384" lon="6.31263">
        <ele>205</ele>
        <time>2011-03-26T00:00:07Z</time>
      </trkpt>
      <trkpt lat="48.63384" lon="6.31238">
        <ele>205</ele>
        <time>2011-03-26T00:00:09Z</time>
      </trkpt>
      <trkpt lat="48.63433" lon="6.31123">
        <ele>204</ele>
        <time>2011-03-26T00:00:22Z</time>
      </trkpt>
      <trkpt lat="48.63477" lon="6.31077">
        <ele>205</ele>
        <time>2011-03-26T00:00:35Z</time>
      </trkpt>
      <trkpt lat="48.63496" lon="6.3107">
        <ele>206</ele>
        <time>2011-03-26T00:00:41Z</time>
      </trkpt>
      <trkpt lat="48.6363" lon="6.31164">
        <ele>211</ele>
        <time>2011-03-26T00:01:19Z</time>
      </trkpt>
      <trkpt lat="48.63778" lon="6.30633">
        <ele>207</ele>
        <time>2011-03-26T00:02:10Z</time>
      </trkpt>
      <trkpt lat="48.6381" lon="6.30541">
        <ele>207</ele>
        <time>2011-03-26T00:02:22Z</time>
      </trkpt>
      <trkpt lat="48.63862" lon="6.30427">
        <ele>209</ele>
        <time>2011-03-26T00:02:39Z</time>
      </trkpt>
      <trkpt lat="48.63897" lon="6.3042">
        <ele>209</ele>
        <time>2011-03-26T00:02:47Z</time>
      </trkpt>
      <trkpt lat="48.63997" lon="6.30353">
        <ele>212</ele>
        <time>2011-03-26T00:03:11Z</time>
      </trkpt>
      <trkpt lat="48.64179" lon="6.30311">
        <ele>222</ele>
        <time>2011-03-26T00:04:15Z</time>
      </trkpt>
      <trkpt lat="48.64248" lon="6.30266">
        <ele>222</ele>
        <time>2011-03-26T00:04:28Z</time>
      </trkpt>
      <trkpt lat="48.64273" lon="6.30257">
        <ele>223</ele>
        <time>2011-03-26T00:04:33Z</time>
      </trkpt>
      <trkpt lat="48.64355" lon="6.30247">
        <ele>221</ele>
        <time>2011-03-26T00:04:44Z</time>
      </trkpt>
      <trkpt lat="48.64468" lon="6.30202">
        <ele>220</ele>
        <time>2011-03-26T00:04:59Z</time>
      </trkpt>
      <trkpt lat="48.64498" lon="6.302">
        <ele>219</ele>
        <time>2011-03-26T00:05:03Z</time>
      </trkpt>
      <trkpt lat="48.6467" lon="6.30216">
        <ele>215</ele>
        <time>2011-03-26T00:05:26Z</time>
      </trkpt>
      <trkpt lat="48.64703" lon="6.30227">
        <ele>214</ele>
        <time>2011-03-26T00:05:31Z</time>
      </trkpt>
      <trkpt lat="48.64871" lon="6.30306">
        <ele>210</ele>
        <time>2011-03-26T00:05:54Z</time>
      </trkpt>
      <trkpt lat="48.64911" lon="6.30337">
        <ele>210</ele>
        <time>2011-03-26T00:06:00Z</time>
      </trkpt>
      <trkpt lat="48.64975" lon="6.304">
        <ele>210</ele>
        <time>2011-03-26T00:06:11Z</time>
      </trkpt>
      <trkpt lat="48.65268" lon="6.30644">
        <ele>208</ele>
        <time>2011-03-26T00:06:55Z</time>
      </trkpt>
      <trkpt lat="48.65296" lon="6.30613">
        <ele>207</ele>
        <time>2011-03-26T00:07:00Z</time>
      </trkpt>
      <trkpt lat="48.65391" lon="6.30558">
        <ele>205</ele>
        <time>2011-03-26T00:07:13Z</time>
      </trkpt>
      <trkpt lat="48.6542" lon="6.30535">
        <ele>206</ele>
        <time>2011-03-26T00:07:26Z</time>
      </trkpt>
      <trkpt lat="48.65453" lon="6.30488">
        <ele>209</ele>
        <time>2011-03-26T00:07:42Z</time>
      </trkpt>
      <trkpt lat="48.65492" lon="6.30394">
        <ele>214</ele>
        <time>2011-03-26T00:08:10Z</time>
      </trkpt>
      <trkpt lat="48.65521" lon="6.30352">
        <ele>218</ele>
        <time>2011-03-26T00:08:33Z</time>
      </trkpt>
      <trkpt lat="48.65543" lon="6.30339">
        <ele>221</ele>
        <time>2011-03-26T00:08:47Z</time>
      </trkpt>
      <trkpt lat="48.65576" lon="6.30337">
        <ele>225</ele>
        <time>2011-03-26T00:09:07Z</time>
      </trkpt>
      <trkpt lat="48.65622" lon="6.30359">
        <ele>228</ele>
        <time>2011-03-26T00:09:29Z</time>
      </trkpt>
      <trkpt lat="48.65667" lon="6.30392">
        <ele>233</ele>
        <time>2011-03-26T00:09:52Z</time>
      </trkpt>
      <trkpt lat="48.658" lon="6.30505">
        <ele>237</ele>
        <time>2011-03-26T00:10:28Z</time>
      </trkpt>
      <trkpt lat="48.65821" lon="6.30517">
        <ele>238</ele>
        <time>2011-03-26T00:10:36Z</time>
      </trkpt>
      <trkpt lat="48.65843" lon="6.30524">
        <ele>239</ele>
        <time>2011-03-26T00:10:44Z</time>
      </trkpt>
      <trkpt lat="48.65892" lon="6.30524">
        <ele>242</ele>
        <time>2011-03-26T00:11:01Z</time>
      </trkpt>
      <trkpt lat="48.65942" lon="6.30517">
        <ele>242</ele>
        <time>2011-03-26T00:11:09Z</time>
      </trkpt>
      <trkpt lat="48.6603" lon="6.30453">
        <ele>243</ele>
        <time>2011-03-26T00:11:24Z</time>
      </trkpt>
      <trkpt lat="48.66075" lon="6.30426">
        <ele>242</ele>
        <time>2011-03-26T00:11:31Z</time>
      </trkpt>
      <trkpt lat="48.66172" lon="6.30372">
        <ele>242</ele>
        <time>2011-03-26T00:11:45Z</time>
      </trkpt>
      <trkpt lat="48.6625" lon="6.30336">
        <ele>240</ele>
        <time>2011-03-26T00:11:56Z</time>
      </trkpt>
      <trkpt lat="48.6625" lon="6.30336">
        <ele>240</ele>
        <time>2011-03-26T00:11:57Z</time>
      </trkpt>
      <trkpt lat="48.66353" lon="6.30296">
        <ele>237</ele>
        <time>2011-03-26T00:12:11Z</time>
      </trkpt>
      <trkpt lat="48.66422" lon="6.30481">
        <ele>233</ele>
        <time>2011-03-26T00:12:29Z</time>
      </trkpt>
      <trkpt lat="48.66383" lon="6.30508">
        <ele>232</ele>
        <time>2011-03-26T00:12:35Z</time>
      </trkpt>
      <trkpt lat="48.66384" lon="6.3054">
        <ele>232</ele>
        <time>2011-03-26T00:12:38Z</time>
      </trkpt>
      <trkpt lat="48.66591" lon="6.31172">
        <ele>228</ele>
        <time>2011-03-26T00:13:40Z</time>
      </trkpt>
      <trkpt lat="48.66604" lon="6.31184">
        <ele>227</ele>
        <time>2011-03-26T00:13:42Z</time>
      </trkpt>
      <trkpt lat="48.66618" lon="6.31181">
        <ele>227</ele>
        <time>2011-03-26T00:13:44Z</time>
      </trkpt>
      <trkpt lat="48.66685" lon="6.31149">
        <ele>227</ele>
        <time>2011-03-26T00:13:54Z</time>
      </trkpt>
      <trkpt lat="48.66733" lon="6.3112">
        <ele>227</ele>
        <time>2011-03-26T00:14:00Z</time>
      </trkpt>
      <trkpt lat="48.66761" lon="6.31115">
        <ele>227</ele>
        <time>2011-03-26T00:14:04Z</time>
      </trkpt>
      <trkpt lat="48.66786" lon="6.31148">
        <ele>227</ele>
        <time>2011-03-26T00:14:09Z</time>
      </trkpt>
      <trkpt lat="48.66799" lon="6.31177">
        <ele>226</ele>
        <time>2011-03-26T00:14:12Z</time>
      </trkpt>
      <trkpt lat="48.66867" lon="6.31352">
        <ele>226</ele>
        <time>2011-03-26T00:14:30Z</time>
      </trkpt>
      <trkpt lat="48.66939" lon="6.31574">
        <ele>226</ele>
        <time>2011-03-26T00:14:51Z</time>
      </trkpt>
      <trkpt lat="48.67063" lon="6.32073">
        <ele>222</ele>
        <time>2011-03-26T00:15:39Z</time>
      </trkpt>
      <trkpt lat="48.67067" lon="6.32141">
        <ele>222</ele>
        <time>2011-03-26T00:15:48Z</time>
      </trkpt>
      <trkpt lat="48.67065" lon="6.32183">
        <ele>223</ele>
        <time>2011-03-26T00:15:54Z</time>
      </trkpt>
      <trkpt lat="48.67045" lon="6.32232">
        <ele>224</ele>
        <time>2011-03-26T00:16:01Z</time>
      </trkpt>
      <trkpt lat="48.67007" lon="6.32299">
        <ele>222</ele>
        <time>2011-03-26T00:16:09Z</time>
      </trkpt>
      <trkpt lat="48.67002" lon="6.32315">
        <ele>222</ele>
        <time>2011-03-26T00:16:11Z</time>
      </trkpt>
      <trkpt lat="48.67001" lon="6.32337">
        <ele>222</ele>
        <time>2011-03-26T00:16:13Z</time>
      </trkpt>
      <trkpt lat="48.67002" lon="6.32366">
        <ele>222</ele>
        <time>2011-03-26T00:16:15Z</time>
      </trkpt>
      <trkpt lat="48.67016" lon="6.32412">
        <ele>222</ele>
        <time>2011-03-26T00:16:20Z</time>
      </trkpt>
      <trkpt lat="48.67084" lon="6.32692">
        <ele>223</ele>
        <time>2011-03-26T00:16:50Z</time>
      </trkpt>
      <trkpt lat="48.6715" lon="6.32877">
        <ele>221</ele>
        <time>2011-03-26T00:17:09Z</time>
      </trkpt>
      <trkpt lat="48.67188" lon="6.32968">
        <ele>218</ele>
        <time>2011-03-26T00:17:18Z</time>
      </trkpt>
      <trkpt lat="48.67235" lon="6.33019">
        <ele>217</ele>
        <time>2011-03-26T00:17:26Z</time>
      </trkpt>
      <trkpt lat="48.6727" lon="6.33022">
        <ele>217</ele>
        <time>2011-03-26T00:17:30Z</time>
      </trkpt>
      <trkpt lat="48.67297" lon="6.33043">
        <ele>217</ele>
        <time>2011-03-26T00:17:34Z</time>
      </trkpt>
      <trkpt lat="48.67342" lon="6.33141">
        <ele>217</ele>
        <time>2011-03-26T00:17:45Z</time>
      </trkpt>
      <trkpt lat="48.67384" lon="6.33257">
        <ele>217</ele>
        <time>2011-03-26T00:17:57Z</time>
      </trkpt>
      <trkpt lat="48.674" lon="6.33317">
        <ele>217</ele>
        <time>2011-03-26T00:18:02Z</time>
      </trkpt>
      <trkpt lat="48.67426" lon="6.33566">
        <ele>216</ele>
        <time>2011-03-26T00:18:25Z</time>
      </trkpt>
      <trkpt lat="48.67453" lon="6.33683">
        <ele>214</ele>
        <time>2011-03-26T00:18:36Z</time>
      </trkpt>
      <trkpt lat="48.67468" lon="6.33718">
        <ele>214</ele>
        <time>2011-03-26T00:18:39Z</time>
      </trkpt>
      <trkpt lat="48.675" lon="6.3377">
        <ele>215</ele>
        <time>2011-03-26T00:18:50Z</time>
      </trkpt>
      <trkpt lat="48.67559" lon="6.33833">
        <ele>217</ele>
        <time>2011-03-26T00:19:07Z</time>
      </trkpt>
      <trkpt lat="48.67704" lon="6.33956">
        <ele>216</ele>
        <time>2011-03-26T00:19:29Z</time>
      </trkpt>
      <trkpt lat="48.67726" lon="6.33978">
        <ele>215</ele>
        <time>2011-03-26T00:19:33Z</time>
      </trkpt>
      <trkpt lat="48.67748" lon="6.34009">
        <ele>215</ele>
        <time>2011-03-26T00:19:37Z</time>
      </trkpt>
      <trkpt lat="48.67751" lon="6.34043">
        <ele>215</ele>
        <time>2011-03-26T00:19:40Z</time>
      </trkpt>
      <trkpt lat="48.67746" lon="6.34058">
        <ele>214</ele>
        <time>2011-03-26T00:19:41Z</time>
      </trkpt>
      <trkpt lat="48.67689" lon="6.3414">
        <ele>214</ele>
        <time>2011-03-26T00:19:52Z</time>
      </trkpt>
      <trkpt lat="48.67689" lon="6.3414">
        <ele>214</ele>
        <time>2011-03-26T00:19:53Z</time>
      </trkpt>
      <trkpt lat="48.6762" lon="6.34228">
        <ele>216</ele>
        <time>2011-03-26T00:20:13Z</time>
      </trkpt>
      <trkpt lat="48.67614" lon="6.34238">
        <ele>216</ele>
        <time>2011-03-26T00:20:14Z</time>
      </trkpt>
      <trkpt lat="48.67612" lon="6.34252">
        <ele>216</ele>
        <time>2011-03-26T00:20:16Z</time>
      </trkpt>
      <trkpt lat="48.67626" lon="6.34296">
        <ele>216</ele>
        <time>2011-03-26T00:20:22Z</time>
      </trkpt>
      <trkpt lat="48.67656" lon="6.34366">
        <ele>217</ele>
        <time>2011-03-26T00:20:31Z</time>
      </trkpt>
      <trkpt lat="48.67701" lon="6.3445">
        <ele>218</ele>
        <time>2011-03-26T00:20:45Z</time>
      </trkpt>
      <trkpt lat="48.67769" lon="6.34623">
        <ele>220</ele>
        <time>2011-03-26T00:21:10Z</time>
      </trkpt>
      <trkpt lat="48.678" lon="6.34662">
        <ele>219</ele>
        <time>2011-03-26T00:21:16Z</time>
      </trkpt>
      <trkpt lat="48.67829" lon="6.34668">
        <ele>219</ele>
        <time>2011-03-26T00:21:20Z</time>
      </trkpt>
      <trkpt lat="48.67938" lon="6.34673">
        <ele>219</ele>
        <time>2011-03-26T00:21:34Z</time>
      </trkpt>
      <trkpt lat="48.67977" lon="6.34687">
        <ele>219</ele>
        <time>2011-03-26T00:21:40Z</time>
      </trkpt>
      <trkpt lat="48.68041" lon="6.34738">
        <ele>219</ele>
        <time>2011-03-26T00:21:49Z</time>
      </trkpt>
      <trkpt lat="48.68108" lon="6.34815">
        <ele>221</ele>
        <time>2011-03-26T00:22:10Z</time>
      </trkpt>
      <trkpt lat="48.68146" lon="6.34868">
        <ele>223</ele>
        <time>2011-03-26T00:22:23Z</time>
      </trkpt>
      <trkpt lat="48.68181" lon="6.34927">
        <ele>223</ele>
        <time>2011-03-26T00:22:34Z</time>
      </trkpt>
      <trkpt lat="48.68204" lon="6.35008">
        <ele>225</ele>
        <time>2011-03-26T00:22:46Z</time>
      </trkpt>
      <trkpt lat="48.68249" lon="6.35122">
        <ele>221</ele>
        <time>2011-03-26T00:22:58Z</time>
      </trkpt>
      <trkpt lat="48.68307" lon="6.35256">
        <ele>217</ele>
        <time>2011-03-26T00:23:12Z</time>
      </trkpt>
      <trkpt lat="48.68344" lon="6.3533">
        <ele>217</ele>
        <time>2011-03-26T00:23:23Z</time>
      </trkpt>
      <trkpt lat="48.68374" lon="6.35375">
        <ele>218</ele>
        <time>2011-03-26T00:23:30Z</time>
      </trkpt>
      <trkpt lat="48.68496" lon="6.35527">
        <ele>225</ele>
        <time>2011-03-26T00:24:19Z</time>
      </trkpt>
      <trkpt lat="48.68604" lon="6.35644">
        <ele>233</ele>
        <time>2011-03-26T00:25:09Z</time>
      </trkpt>
      <trkpt lat="48.68683" lon="6.35716">
        <ele>236</ele>
        <time>2011-03-26T00:25:33Z</time>
      </trkpt>
      <trkpt lat="48.68715" lon="6.35738">
        <ele>237</ele>
        <time>2011-03-26T00:25:43Z</time>
      </trkpt>
      <trkpt lat="48.68752" lon="6.35748">
        <ele>238</ele>
        <time>2011-03-26T00:25:54Z</time>
      </trkpt>
      <trkpt lat="48.68914" lon="6.35769">
        <ele>245</ele>
        <time>2011-03-26T00:26:40Z</time>
      </trkpt>
      <trkpt lat="48.69072" lon="6.35798">
        <ele>251</ele>
        <time>2011-03-26T00:27:26Z</time>
      </trkpt>
      <trkpt lat="48.69149" lon="6.35828">
        <ele>253</ele>
        <time>2011-03-26T00:27:47Z</time>
      </trkpt>
      <trkpt lat="48.6925" lon="6.35947">
        <ele>258</ele>
        <time>2011-03-26T00:28:21Z</time>
      </trkpt>
      <trkpt lat="48.6947" lon="6.36224">
        <ele>256</ele>
        <time>2011-03-26T00:29:00Z</time>
      </trkpt>
      <trkpt lat="48.69473" lon="6.36231">
        <ele>255</ele>
        <time>2011-03-26T00:29:00Z</time>
      </trkpt>
      <trkpt lat="48.6947" lon="6.36258">
        <ele>254</ele>
        <time>2011-03-26T00:29:03Z</time>
      </trkpt>
      <trkpt lat="48.69397" lon="6.3648">
        <ele>248</ele>
        <time>2011-03-26T00:29:25Z</time>
      </trkpt>
      <trkpt lat="48.69381" lon="6.36539">
        <ele>245</ele>
        <time>2011-03-26T00:29:30Z</time>
      </trkpt>
      <trkpt lat="48.69353" lon="6.36677">
        <ele>239</ele>
        <time>2011-03-26T00:29:43Z</time>
      </trkpt>
      <trkpt lat="48.69352" lon="6.36693">
        <ele>238</ele>
        <time>2011-03-26T00:29:44Z</time>
      </trkpt>
      <trkpt lat="48.69361" lon="6.36737">
        <ele>237</ele>
        <time>2011-03-26T00:29:48Z</time>
      </trkpt>
      <trkpt lat="48.69383" lon="6.36786">
        <ele>236</ele>
        <time>2011-03-26T00:29:54Z</time>
      </trkpt>
      <trkpt lat="48.69409" lon="6.36797">
        <ele>236</ele>
        <time>2011-03-26T00:29:57Z</time>
      </trkpt>
      <trkpt lat="48.69423" lon="6.36812">
        <ele>235</ele>
        <time>2011-03-26T00:30:00Z</time>
      </trkpt>
      <trkpt lat="48.69445" lon="6.36851">
        <ele>233</ele>
        <time>2011-03-26T00:30:04Z</time>
      </trkpt>
      <trkpt lat="48.69494" lon="6.3701">
        <ele>229</ele>
        <time>2011-03-26T00:30:20Z</time>
      </trkpt>
      <trkpt lat="48.69521" lon="6.37116">
        <ele>224</ele>
        <time>2011-03-26T00:30:30Z</time>
      </trkpt>
      <trkpt lat="48.6953" lon="6.37133">
        <ele>224</ele>
        <time>2011-03-26T00:30:32Z</time>
      </trkpt>
      <trkpt lat="48.69574" lon="6.37186">
        <ele>221</ele>
        <time>2011-03-26T00:30:39Z</time>
      </trkpt>
      <trkpt lat="48.69679" lon="6.37288">
        <ele>225</ele>
        <time>2011-03-26T00:31:12Z</time>
      </trkpt>
      <trkpt lat="48.69728" lon="6.37358">
        <ele>226</ele>
        <time>2011-03-26T00:31:28Z</time>
      </trkpt>
      <trkpt lat="48.69777" lon="6.37453">
        <ele>229</ele>
        <time>2011-03-26T00:31:47Z</time>
      </trkpt>
      <trkpt lat="48.69819" lon="6.37554">
        <ele>230</ele>
        <time>2011-03-26T00:32:06Z</time>
      </trkpt>
      <trkpt lat="48.69917" lon="6.37754">
        <ele>235</ele>
        <time>2011-03-26T00:32:44Z</time>
      </trkpt>
      <trkpt lat="48.70057" lon="6.38014">
        <ele>237</ele>
        <time>2011-03-26T00:33:21Z</time>
      </trkpt>
      <trkpt lat="48.70151" lon="6.38178">
        <ele>237</ele>
        <time>2011-03-26T00:33:41Z</time>
      </trkpt>
      <trkpt lat="48.70181" lon="6.38299">
        <ele>235</ele>
        <time>2011-03-26T00:33:52Z</time>
      </trkpt>
      <trkpt lat="48.70204" lon="6.38354">
        <ele>235</ele>
        <time>2011-03-26T00:33:58Z</time>
      </trkpt>
      <trkpt lat="48.70237" lon="6.38413">
        <ele>233</ele>
        <time>2011-03-26T00:34:04Z</time>
      </trkpt>
      <trkpt lat="48.70339" lon="6.38563">
        <ele>231</ele>
        <time>2011-03-26T00:34:23Z</time>
      </trkpt>
      <trkpt lat="48.70342" lon="6.38581">
        <ele>231</ele>
        <time>2011-03-26T00:34:25Z</time>
      </trkpt>
      <trkpt lat="48.7034" lon="6.38604">
        <ele>231</ele>
        <time>2011-03-26T00:34:27Z</time>
      </trkpt>
      <trkpt lat="48.70319" lon="6.38654">
        <ele>231</ele>
        <time>2011-03-26T00:34:32Z</time>
      </trkpt>
      <trkpt lat="48.70319" lon="6.38654">
        <ele>231</ele>
        <time>2011-03-26T00:34:33Z</time>
      </trkpt>
      <trkpt lat="48.70284" lon="6.38726">
        <ele>231</ele>
        <time>2011-03-26T00:34:45Z</time>
      </trkpt>
      <trkpt lat="48.70283" lon="6.38749">
        <ele>232</ele>
        <time>2011-03-26T00:34:48Z</time>
      </trkpt>
      <trkpt lat="48.70414" lon="6.38903">
        <ele>235</ele>
        <time>2011-03-26T00:35:21Z</time>
      </trkpt>
      <trkpt lat="48.70487" lon="6.38999">
        <ele>237</ele>
        <time>2011-03-26T00:35:42Z</time>
      </trkpt>
      <trkpt lat="48.70495" lon="6.39002">
        <ele>237</ele>
        <time>2011-03-26T00:35:44Z</time>
      </trkpt>
      <trkpt lat="48.70504" lon="6.39037">
        <ele>237</ele>
        <time>2011-03-26T00:35:49Z</time>
      </trkpt>
      <trkpt lat="48.70488" lon="6.39079">
        <ele>238</ele>
        <time>2011-03-26T00:35:56Z</time>
      </trkpt>
      <trkpt lat="48.70486" lon="6.39088">
        <ele>238</ele>
        <time>2011-03-26T00:35:57Z</time>
      </trkpt>
      <trkpt lat="48.70489" lon="6.39096">
        <ele>238</ele>
        <time>2011-03-26T00:35:58Z</time>
      </trkpt>
      <trkpt lat="48.70594" lon="6.3924">
        <ele>241</ele>
        <time>2011-03-26T00:36:28Z</time>
      </trkpt>
      <trkpt lat="48.70612" lon="6.39275">
        <ele>242</ele>
        <time>2011-03-26T00:36:36Z</time>
      </trkpt>
      <trkpt lat="48.70627" lon="6.3931">
        <ele>243</ele>
        <time>2011-03-26T00:36:44Z</time>
      </trkpt>
      <trkpt lat="48.70665" lon="6.39445">
        <ele>247</ele>
        <time>2011-03-26T00:37:12Z</time>
      </trkpt>
      <trkpt lat="48.70714" lon="6.39552">
        <ele>248</ele>
        <time>2011-03-26T00:37:29Z</time>
      </trkpt>
      <trkpt lat="48.70776" lon="6.39659">
        <ele>250</ele>
        <time>2011-03-26T00:37:48Z</time>
      </trkpt>
      <trkpt lat="48.70804" lon="6.39732">
        <ele>251</ele>
        <time>2011-03-26T00:38:00Z</time>
      </trkpt>
      <trkpt lat="48.70825" lon="6.398">
        <ele>252</ele>
        <time>2011-03-26T00:38:10Z</time>
      </trkpt>
      <trkpt lat="48.70845" lon="6.39922">
        <ele>252</ele>
        <time>2011-03-26T00:38:23Z</time>
      </trkpt>
      <trkpt lat="48.70878" lon="6.40023">
        <ele>253</ele>
        <time>2011-03-26T00:38:35Z</time>
      </trkpt>
      <trkpt lat="48.70879" lon="6.40092">
        <ele>254</ele>
        <time>2011-03-26T00:38:46Z</time>
      </trkpt>
      <trkpt lat="48.70859" lon="6.40212">
        <ele>256</ele>
        <time>2011-03-26T00:39:04Z</time>
      </trkpt>
      <trkpt lat="48.70849" lon="6.40307">
        <ele>257</ele>
        <time>2011-03-26T00:39:19Z</time>
      </trkpt>
      <trkpt lat="48.70846" lon="6.40387">
        <ele>259</ele>
        <time>2011-03-26T00:39:32Z</time>
      </trkpt>
      <trkpt lat="48.70854" lon="6.40627">
        <ele>263</ele>
        <time>2011-03-26T00:40:09Z</time>
      </trkpt>
      <trkpt lat="48.70862" lon="6.40706">
        <ele>264</ele>
        <time>2011-03-26T00:40:20Z</time>
      </trkpt>
      <trkpt lat="48.70885" lon="6.40853">
        <ele>266</ele>
        <time>2011-03-26T00:40:41Z</time>
      </trkpt>
      <trkpt lat="48.70886" lon="6.40962">
        <ele>266</ele>
        <time>2011-03-26T00:40:54Z</time>
      </trkpt>
      <trkpt lat="48.70891" lon="6.41014">
        <ele>267</ele>
        <time>2011-03-26T00:41:00Z</time>
      </trkpt>
      <trkpt lat="48.70921" lon="6.41191">
        <ele>270</ele>
        <time>2011-03-26T00:41:28Z</time>
      </trkpt>
      <trkpt lat="48.70939" lon="6.41265">
        <ele>270</ele>
        <time>2011-03-26T00:41:38Z</time>
      </trkpt>
      <trkpt lat="48.70954" lon="6.41354">
        <ele>272</ele>
        <time>2011-03-26T00:41:51Z</time>
      </trkpt>
      <trkpt lat="48.70955" lon="6.41432">
        <ele>272</ele>
        <time>2011-03-26T00:41:59Z</time>
      </trkpt>
      <trkpt lat="48.70948" lon="6.41521">
        <ele>273</ele>
        <time>2011-03-26T00:42:10Z</time>
      </trkpt>
      <trkpt lat="48.70949" lon="6.41558">
        <ele>273</ele>
        <time>2011-03-26T00:42:14Z</time>
      </trkpt>
      <trkpt lat="48.71003" lon="6.41686">
        <ele>275</ele>
        <time>2011-03-26T00:42:34Z</time>
      </trkpt>
      <trkpt lat="48.71044" lon="6.41769">
        <ele>276</ele>
        <time>2011-03-26T00:42:49Z</time>
      </trkpt>
      <trkpt lat="48.71055" lon="6.41808">
        <ele>277</ele>
        <time>2011-03-26T00:42:55Z</time>
      </trkpt>
      <trkpt lat="48.71058" lon="6.41845">
        <ele>277</ele>
        <time>2011-03-26T00:43:01Z</time>
      </trkpt>
      <trkpt lat="48.71086" lon="6.42264">
        <ele>285</ele>
        <time>2011-03-26T00:44:07Z</time>
      </trkpt>
      <trkpt lat="48.71088" lon="6.42331">
        <ele>284</ele>
        <time>2011-03-26T00:44:13Z</time>
      </trkpt>
      <trkpt lat="48.71084" lon="6.42366">
        <ele>284</ele>
        <time>2011-03-26T00:44:16Z</time>
      </trkpt>
      <trkpt lat="48.70987" lon="6.42596">
        <ele>284</ele>
        <time>2011-03-26T00:44:41Z</time>
      </trkpt>
      <trkpt lat="48.70918" lon="6.42749">
        <ele>278</ele>
        <time>2011-03-26T00:44:57Z</time>
      </trkpt>
      <trkpt lat="48.70842" lon="6.42846">
        <ele>276</ele>
        <time>2011-03-26T00:45:10Z</time>
      </trkpt>
      <trkpt lat="48.70817" lon="6.42887">
        <ele>275</ele>
        <time>2011-03-26T00:45:15Z</time>
      </trkpt>
      <trkpt lat="48.70807" lon="6.42918">
        <ele>274</ele>
        <time>2011-03-26T00:45:18Z</time>
      </trkpt>
      <trkpt lat="48.70778" lon="6.43054">
        <ele>273</ele>
        <time>2011-03-26T00:45:31Z</time>
      </trkpt>
      <trkpt lat="48.70778" lon="6.43054">
        <ele>273</ele>
        <time>2011-03-26T00:45:32Z</time>
      </trkpt>
      <trkpt lat="48.70769" lon="6.43124">
        <ele>273</ele>
        <time>2011-03-26T00:45:38Z</time>
      </trkpt>
      <trkpt lat="48.70765" lon="6.43199">
        <ele>273</ele>
        <time>2011-03-26T00:45:45Z</time>
      </trkpt>
      <trkpt lat="48.70782" lon="6.43284">
        <ele>273</ele>
        <time>2011-03-26T00:45:56Z</time>
      </trkpt>
      <trkpt lat="48.70844" lon="6.43345">
        <ele>275</ele>
        <time>2011-03-26T00:46:10Z</time>
      </trkpt>
      <trkpt lat="48.70938" lon="6.4346">
        <ele>278</ele>
        <time>2011-03-26T00:46:38Z</time>
      </trkpt>
      <trkpt lat="48.70968" lon="6.43483">
        <ele>280</ele>
        <time>2011-03-26T00:46:52Z</time>
      </trkpt>
      <trkpt lat="48.71172" lon="6.43537">
        <ele>294</ele>
        <time>2011-03-26T00:48:15Z</time>
      </trkpt>
      <trkpt lat="48.71242" lon="6.43551">
        <ele>297</ele>
        <time>2011-03-26T00:48:38Z</time>
      </trkpt>
      <trkpt lat="48.71273" lon="6.43567">
        <ele>299</ele>
        <time>2011-03-26T00:48:48Z</time>
      </trkpt>
      <trkpt lat="48.71337" lon="6.43624">
        <ele>301</ele>
        <time>2011-03-26T00:49:07Z</time>
      </trkpt>
      <trkpt lat="48.71364" lon="6.43637">
        <ele>302</ele>
        <time>2011-03-26T00:49:14Z</time>
      </trkpt>
      <trkpt lat="48.71662" lon="6.43684">
        <ele>312</ele>
        <time>2011-03-26T00:50:34Z</time>
      </trkpt>
      <trkpt lat="48.7178" lon="6.43697">
        <ele>315</ele>
        <time>2011-03-26T00:51:02Z</time>
      </trkpt>
      <trkpt lat="48.71819" lon="6.43692">
        <ele>314</ele>
        <time>2011-03-26T00:51:07Z</time>
      </trkpt>
      <trkpt lat="48.71864" lon="6.43743">
        <ele>314</ele>
        <time>2011-03-26T00:51:15Z</time>
      </trkpt>
      <trkpt lat="48.71944" lon="6.43846">
        <ele>314</ele>
        <time>2011-03-26T00:51:29Z</time>
      </trkpt>
      <trkpt lat="48.71965" lon="6.43867">
        <ele>313</ele>
        <time>2011-03-26T00:51:32Z</time>
      </trkpt>
      <trkpt lat="48.71979" lon="6.43873">
        <ele>313</ele>
        <time>2011-03-26T00:51:34Z</time>
      </trkpt>
      <trkpt lat="48.72002" lon="6.43874">
        <ele>313</ele>
        <time>2011-03-26T00:51:37Z</time>
      </trkpt>
      <trkpt lat="48.7207" lon="6.43856">
        <ele>312</ele>
        <time>2011-03-26T00:51:46Z</time>
      </trkpt>
      <trkpt lat="48.72102" lon="6.43858">
        <ele>309</ele>
        <time>2011-03-26T00:51:51Z</time>
      </trkpt>
      <trkpt lat="48.72155" lon="6.43895">
        <ele>305</ele>
        <time>2011-03-26T00:51:58Z</time>
      </trkpt>
      <trkpt lat="48.72261" lon="6.43928">
        <ele>298</ele>
        <time>2011-03-26T00:52:13Z</time>
      </trkpt>
      <trkpt lat="48.72415" lon="6.44023">
        <ele>284</ele>
        <time>2011-03-26T00:52:35Z</time>
      </trkpt>
      <trkpt lat="48.72521" lon="6.44067">
        <ele>279</ele>
        <time>2011-03-26T00:52:50Z</time>
      </trkpt>
      <trkpt lat="48.72579" lon="6.44112">
        <ele>275</ele>
        <time>2011-03-26T00:52:58Z</time>
      </trkpt>
      <trkpt lat="48.7281" lon="6.44328">
        <ele>263</ele>
        <time>2011-03-26T00:53:35Z</time>
      </trkpt>
      <trkpt lat="48.72833" lon="6.44355">
        <ele>262</ele>
        <time>2011-03-26T00:53:39Z</time>
      </trkpt>
      <trkpt lat="48.72844" lon="6.4438">
        <ele>261</ele>
        <time>2011-03-26T00:53:41Z</time>
      </trkpt>
      <trkpt lat="48.72902" lon="6.44527">
        <ele>259</ele>
        <time>2011-03-26T00:53:56Z</time>
      </trkpt>
      <trkpt lat="48.72963" lon="6.44666">
        <ele>258</ele>
        <time>2011-03-26T00:54:11Z</time>
      </trkpt>
      <trkpt lat="48.7298" lon="6.4471">
        <ele>257</ele>
        <time>2011-03-26T00:54:16Z</time>
      </trkpt>
      <trkpt lat="48.72986" lon="6.44738">
        <ele>257</ele>
        <time>2011-03-26T00:54:18Z</time>
      </trkpt>
      <trkpt lat="48.72989" lon="6.44783">
        <ele>257</ele>
        <time>2011-03-26T00:54:22Z</time>
      </trkpt>
      <trkpt lat="48.72985" lon="6.44825">
        <ele>257</ele>
        <time>2011-03-26T00:54:26Z</time>
      </trkpt>
      <trkpt lat="48.72972" lon="6.44861">
        <ele>257</ele>
        <time>2011-03-26T00:54:29Z</time>
      </trkpt>
      <trkpt lat="48.72916" lon="6.44946">
        <ele>257</ele>
        <time>2011-03-26T00:54:40Z</time>
      </trkpt>
      <trkpt lat="48.72914" lon="6.44976">
        <ele>257</ele>
        <time>2011-03-26T00:54:44Z</time>
      </trkpt>
      <trkpt lat="48.72921" lon="6.45002">
        <ele>257</ele>
        <time>2011-03-26T00:54:48Z</time>
      </trkpt>
      <trkpt lat="48.72964" lon="6.45034">
        <ele>258</ele>
        <time>2011-03-26T00:54:58Z</time>
      </trkpt>
      <trkpt lat="48.73046" lon="6.45075">
        <ele>260</ele>
        <time>2011-03-26T00:55:15Z</time>
      </trkpt>
      <trkpt lat="48.7309" lon="6.45115">
        <ele>261</ele>
        <time>2011-03-26T00:55:28Z</time>
      </trkpt>
      <trkpt lat="48.73111" lon="6.4514">
        <ele>262</ele>
        <time>2011-03-26T00:55:35Z</time>
      </trkpt>
      <trkpt lat="48.73244" lon="6.45341">
        <ele>268</ele>
        <time>2011-03-26T00:56:23Z</time>
      </trkpt>
      <trkpt lat="48.7328" lon="6.45408">
        <ele>266</ele>
        <time>2011-03-26T00:56:30Z</time>
      </trkpt>
      <trkpt lat="48.73312" lon="6.45479">
        <ele>266</ele>
        <time>2011-03-26T00:56:38Z</time>
      </trkpt>
      <trkpt lat="48.73379" lon="6.45589">
        <ele>269</ele>
        <time>2011-03-26T00:57:03Z</time>
      </trkpt>
      <trkpt lat="48.73453" lon="6.4567">
        <ele>268</ele>
        <time>2011-03-26T00:57:15Z</time>
      </trkpt>
      <trkpt lat="48.73618" lon="6.45877">
        <ele>258</ele>
        <time>2011-03-26T00:57:44Z</time>
      </trkpt>
      <trkpt lat="48.73727" lon="6.46036">
        <ele>243</ele>
        <time>2011-03-26T00:58:04Z</time>
      </trkpt>
      <trkpt lat="48.73786" lon="6.46085">
        <ele>239</ele>
        <time>2011-03-26T00:58:13Z</time>
      </trkpt>
      <trkpt lat="48.73863" lon="6.46134">
        <ele>235</ele>
        <time>2011-03-26T00:58:24Z</time>
      </trkpt>
      <trkpt lat="48.73902" lon="6.4617">
        <ele>232</ele>
        <time>2011-03-26T00:58:30Z</time>
      </trkpt>
      <trkpt lat="48.73983" lon="6.46285">
        <ele>225</ele>
        <time>2011-03-26T00:58:45Z</time>
      </trkpt>
      <trkpt lat="48.74083" lon="6.46438">
        <ele>216</ele>
        <time>2011-03-26T00:59:04Z</time>
      </trkpt>
      <trkpt lat="48.74133" lon="6.46553">
        <ele>211</ele>
        <time>2011-03-26T00:59:16Z</time>
      </trkpt>
      <trkpt lat="48.74164" lon="6.46651">
        <ele>208</ele>
        <time>2011-03-26T00:59:26Z</time>
      </trkpt>
      <trkpt lat="48.74178" lon="6.46684">
        <ele>208</ele>
        <time>2011-03-26T00:59:29Z</time>
      </trkpt>
      <trkpt lat="48.74229" lon="6.46723">
        <ele>208</ele>
        <time>2011-03-26T00:59:38Z</time>
      </trkpt>
      <trkpt lat="48.74243" lon="6.46682">
        <ele>208</ele>
        <time>2011-03-26T00:59:42Z</time>
      </trkpt>
      <trkpt lat="48.74264" lon="6.46658">
        <ele>208</ele>
        <time>2011-03-26T00:59:46Z</time>
      </trkpt>
      <trkpt lat="48.74382" lon="6.46601">
        <ele>209</ele>
        <time>2011-03-26T01:00:05Z</time>
      </trkpt>
      <trkpt lat="48.74409" lon="6.46567">
        <ele>209</ele>
        <time>2011-03-26T01:00:13Z</time>
      </trkpt>
      <trkpt lat="48.74518" lon="6.46404">
        <ele>213</ele>
        <time>2011-03-26T01:00:46Z</time>
      </trkpt>
      <trkpt lat="48.74518" lon="6.46404">
        <ele>213</ele>
        <time>2011-03-26T01:00:47Z</time>
      </trkpt>
      <trkpt lat="48.74532" lon="6.4638">
        <ele>213</ele>
        <time>2011-03-26T01:00:53Z</time>
      </trkpt>
      <trkpt lat="48.74539" lon="6.46353">
        <ele>214</ele>
        <time>2011-03-26T01:00:58Z</time>
      </trkpt>
      <trkpt lat="48.7454" lon="6.46278">
        <ele>215</ele>
        <time>2011-03-26T01:01:11Z</time>
      </trkpt>
      <trkpt lat="48.74543" lon="6.46273">
        <ele>216</ele>
        <time>2011-03-26T01:01:12Z</time>
      </trkpt>
      <trkpt lat="48.74625" lon="6.46229">
        <ele>215</ele>
        <time>2011-03-26T01:01:23Z</time>
      </trkpt>
      <trkpt lat="48.74715" lon="6.46169">
        <ele>214</ele>
        <time>2011-03-26T01:01:36Z</time>
      </trkpt>
      <trkpt lat="48.74731" lon="6.46155">
        <ele>214</ele>
        <time>2011-03-26T01:01:39Z</time>
      </trkpt>
      <trkpt lat="48.74752" lon="6.4612">
        <ele>214</ele>
        <time>2011-03-26T01:01:44Z</time>
      </trkpt>
      <trkpt lat="48.74771" lon="6.46076">
        <ele>214</ele>
        <time>2011-03-26T01:01:49Z</time>
      </trkpt>
      <trkpt lat="48.74823" lon="6.45897">
        <ele>215</ele>
        <time>2011-03-26T01:02:09Z</time>
      </trkpt>
      <trkpt lat="48.74908" lon="6.45705">
        <ele>213</ele>
        <time>2011-03-26T01:02:29Z</time>
      </trkpt>
      <trkpt lat="48.74941" lon="6.45536">
        <ele>210</ele>
        <time>2011-03-26T01:02:45Z</time>
      </trkpt>
      <trkpt lat="48.75021" lon="6.45375">
        <ele>220</ele>
        <time>2011-03-26T01:03:43Z</time>
      </trkpt>
      <trkpt lat="48.75027" lon="6.45343">
        <ele>220</ele>
        <time>2011-03-26T01:03:48Z</time>
      </trkpt>
      <trkpt lat="48.7505" lon="6.45041">
        <ele>227</ele>
        <time>2011-03-26T01:04:40Z</time>
      </trkpt>
      <trkpt lat="48.75111" lon="6.44344">
        <ele>232</ele>
        <time>2011-03-26T01:06:02Z</time>
      </trkpt>
      <trkpt lat="48.75118" lon="6.44325">
        <ele>230</ele>
        <time>2011-03-26T01:06:04Z</time>
      </trkpt>
      <trkpt lat="48.75134" lon="6.44311">
        <ele>229</ele>
        <time>2011-03-26T01:06:07Z</time>
      </trkpt>
      <trkpt lat="48.75219" lon="6.44283">
        <ele>222</ele>
        <time>2011-03-26T01:06:18Z</time>
      </trkpt>
      <trkpt lat="48.75286" lon="6.44243">
        <ele>212</ele>
        <time>2011-03-26T01:06:28Z</time>
      </trkpt>
      <trkpt lat="48.75311" lon="6.44222">
        <ele>209</ele>
        <time>2011-03-26T01:06:32Z</time>
      </trkpt>
      <trkpt lat="48.75328" lon="6.44201">
        <ele>208</ele>
        <time>2011-03-26T01:06:35Z</time>
      </trkpt>
      <trkpt lat="48.75346" lon="6.44164">
        <ele>207</ele>
        <time>2011-03-26T01:06:39Z</time>
      </trkpt>
      <trkpt lat="48.75352" lon="6.44142">
        <ele>207</ele>
        <time>2011-03-26T01:06:41Z</time>
      </trkpt>
      <trkpt lat="48.75352" lon="6.44116">
        <ele>207</ele>
        <time>2011-03-26T01:06:43Z</time>
      </trkpt>
      <trkpt lat="48.75344" lon="6.44101">
        <ele>206</ele>
        <time>2011-03-26T01:06:45Z</time>
      </trkpt>
      <trkpt lat="48.75274" lon="6.44012">
        <ele>205</ele>
        <time>2011-03-26T01:06:57Z</time>
      </trkpt>
      <trkpt lat="48.7519" lon="6.43891">
        <ele>206</ele>
        <time>2011-03-26T01:07:16Z</time>
      </trkpt>
      <trkpt lat="48.75151" lon="6.43797">
        <ele>207</ele>
        <time>2011-03-26T01:07:32Z</time>
      </trkpt>
      <trkpt lat="48.75094" lon="6.437">
        <ele>209</ele>
        <time>2011-03-26T01:07:50Z</time>
      </trkpt>
      <trkpt lat="48.75092" lon="6.43688">
        <ele>209</ele>
        <time>2011-03-26T01:07:52Z</time>
      </trkpt>
      <trkpt lat="48.75095" lon="6.43662">
        <ele>210</ele>
        <time>2011-03-26T01:07:58Z</time>
      </trkpt>
      <trkpt lat="48.75163" lon="6.43472">
        <ele>217</ele>
        <time>2011-03-26T01:08:44Z</time>
      </trkpt>
      <trkpt lat="48.75178" lon="6.43435">
        <ele>217</ele>
        <time>2011-03-26T01:08:51Z</time>
      </trkpt>
      <trkpt lat="48.75197" lon="6.43426">
        <ele>218</ele>
        <time>2011-03-26T01:08:55Z</time>
      </trkpt>
      <trkpt lat="48.75222" lon="6.43423">
        <ele>218</ele>
        <time>2011-03-26T01:09:01Z</time>
      </trkpt>
      <trkpt lat="48.7531" lon="6.43429">
        <ele>221</ele>
        <time>2011-03-26T01:09:22Z</time>
      </trkpt>
      <trkpt lat="48.75337" lon="6.43424">
        <ele>220</ele>
        <time>2011-03-26T01:09:25Z</time>
      </trkpt>
      <trkpt lat="48.75365" lon="6.43411">
        <ele>219</ele>
        <time>2011-03-26T01:09:29Z</time>
      </trkpt>
      <trkpt lat="48.75526" lon="6.43284">
        <ele>213</ele>
        <time>2011-03-26T01:09:53Z</time>
      </trkpt>
      <trkpt lat="48.75696" lon="6.43012">
        <ele>215</ele>
        <time>2011-03-26T01:10:34Z</time>
      </trkpt>
      <trkpt lat="48.75739" lon="6.42971">
        <ele>213</ele>
        <time>2011-03-26T01:10:41Z</time>
      </trkpt>
      <trkpt lat="48.75777" lon="6.42917">
        <ele>211</ele>
        <time>2011-03-26T01:10:48Z</time>
      </trkpt>
      <trkpt lat="48.75853" lon="6.42744">
        <ele>209</ele>
        <time>2011-03-26T01:11:07Z</time>
      </trkpt>
      <trkpt lat="48.759" lon="6.42653">
        <ele>209</ele>
        <time>2011-03-26T01:11:17Z</time>
      </trkpt>
      <trkpt lat="48.75984" lon="6.42512">
        <ele>209</ele>
        <time>2011-03-26T01:11:33Z</time>
      </trkpt>
      <trkpt lat="48.76033" lon="6.42444">
        <ele>212</ele>
        <time>2011-03-26T01:11:54Z</time>
      </trkpt>
      <trkpt lat="48.76033" lon="6.42444">
        <ele>212</ele>
        <time>2011-03-26T01:11:55Z</time>
      </trkpt>
      <trkpt lat="48.76123" lon="6.4234">
        <ele>218</ele>
        <time>2011-03-26T01:12:34Z</time>
      </trkpt>
      <trkpt lat="48.76192" lon="6.4228">
        <ele>218</ele>
        <time>2011-03-26T01:12:45Z</time>
      </trkpt>
      <trkpt lat="48.76156" lon="6.42212">
        <ele>218</ele>
        <time>2011-03-26T01:12:53Z</time>
      </trkpt>
      <trkpt lat="48.76134" lon="6.42183">
        <ele>219</ele>
        <time>2011-03-26T01:13:05Z</time>
      </trkpt>
      <trkpt lat="48.7604" lon="6.42119">
        <ele>227</ele>
        <time>2011-03-26T01:13:46Z</time>
      </trkpt>
      <trkpt lat="48.75802" lon="6.41981">
        <ele>249</ele>
        <time>2011-03-26T01:15:48Z</time>
      </trkpt>
      <trkpt lat="48.75362" lon="6.4184">
        <ele>249</ele>
        <time>2011-03-26T01:16:48Z</time>
      </trkpt>
      <trkpt lat="48.75347" lon="6.41838">
        <ele>248</ele>
        <time>2011-03-26T01:16:50Z</time>
      </trkpt>
      <trkpt lat="48.75338" lon="6.41842">
        <ele>248</ele>
        <time>2011-03-26T01:16:52Z</time>
      </trkpt>
      <trkpt lat="48.75275" lon="6.41885">
        <ele>248</ele>
        <time>2011-03-26T01:17:01Z</time>
      </trkpt>
      <trkpt lat="48.75256" lon="6.41892">
        <ele>249</ele>
        <time>2011-03-26T01:17:08Z</time>
      </trkpt>
      <trkpt lat="48.75155" lon="6.41886">
        <ele>255</ele>
        <time>2011-03-26T01:17:45Z</time>
      </trkpt>
      <trkpt lat="48.75155" lon="6.41886">
        <ele>255</ele>
        <time>2011-03-26T01:17:46Z</time>
      </trkpt>
      <trkpt lat="48.75134" lon="6.41884">
        <ele>255</ele>
        <time>2011-03-26T01:17:52Z</time>
      </trkpt>
      <trkpt lat="48.75109" lon="6.41889">
        <ele>256</ele>
        <time>2011-03-26T01:17:59Z</time>
      </trkpt>
      <trkpt lat="48.75054" lon="6.41921">
        <ele>259</ele>
        <time>2011-03-26T01:18:16Z</time>
      </trkpt>
      <trkpt lat="48.74959" lon="6.41956">
        <ele>259</ele>
        <time>2011-03-26T01:18:29Z</time>
      </trkpt>
      <trkpt lat="48.74858" lon="6.41983">
        <ele>257</ele>
        <time>2011-03-26T01:18:43Z</time>
      </trkpt>
      <trkpt lat="48.74842" lon="6.41975">
        <ele>256</ele>
        <time>2011-03-26T01:18:45Z</time>
      </trkpt>
      <trkpt lat="48.74754" lon="6.41503">
        <ele>247</ele>
        <time>2011-03-26T01:19:28Z</time>
      </trkpt>
      <trkpt lat="48.74732" lon="6.41421">
        <ele>244</ele>
        <time>2011-03-26T01:19:36Z</time>
      </trkpt>
      <trkpt lat="48.74709" lon="6.41359">
        <ele>242</ele>
        <time>2011-03-26T01:19:42Z</time>
      </trkpt>
      <trkpt lat="48.74576" lon="6.41141">
        <ele>234</ele>
        <time>2011-03-26T01:20:09Z</time>
      </trkpt>
      <trkpt lat="48.74501" lon="6.4107">
        <ele>232</ele>
        <time>2011-03-26T01:20:20Z</time>
      </trkpt>
      <trkpt lat="48.74477" lon="6.41051">
        <ele>232</ele>
        <time>2011-03-26T01:20:24Z</time>
      </trkpt>
      <trkpt lat="48.74446" lon="6.41037">
        <ele>231</ele>
        <time>2011-03-26T01:20:28Z</time>
      </trkpt>
      <trkpt lat="48.74427" lon="6.41032">
        <ele>231</ele>
        <time>2011-03-26T01:20:31Z</time>
      </trkpt>
      <trkpt lat="48.74386" lon="6.41032">
        <ele>231</ele>
        <time>2011-03-26T01:20:36Z</time>
      </trkpt>
      <trkpt lat="48.74299" lon="6.41052">
        <ele>234</ele>
        <time>2011-03-26T01:21:02Z</time>
      </trkpt>
      <trkpt lat="48.74284" lon="6.41049">
        <ele>235</ele>
        <time>2011-03-26T01:21:06Z</time>
      </trkpt>
      <trkpt lat="48.74246" lon="6.41019">
        <ele>237</ele>
        <time>2011-03-26T01:21:22Z</time>
      </trkpt>
      <trkpt lat="48.74062" lon="6.4084">
        <ele>250</ele>
        <time>2011-03-26T01:22:41Z</time>
      </trkpt>
      <trkpt lat="48.74049" lon="6.40809">
        <ele>251</ele>
        <time>2011-03-26T01:22:48Z</time>
      </trkpt>
      <trkpt lat="48.74038" lon="6.40767">
        <ele>252</ele>
        <time>2011-03-26T01:22:58Z</time>
      </trkpt>
      <trkpt lat="48.74023" lon="6.40674">
        <ele>255</ele>
        <time>2011-03-26T01:23:17Z</time>
      </trkpt>
      <trkpt lat="48.74001" lon="6.4059">
        <ele>257</ele>
        <time>2011-03-26T01:23:33Z</time>
      </trkpt>
      <trkpt lat="48.73973" lon="6.40521">
        <ele>259</ele>
        <time>2011-03-26T01:23:48Z</time>
      </trkpt>
      <trkpt lat="48.73949" lon="6.40474">
        <ele>259</ele>
        <time>2011-03-26T01:23:57Z</time>
      </trkpt>
      <trkpt lat="48.7382" lon="6.40268">
        <ele>264</ele>
        <time>2011-03-26T01:24:38Z</time>
      </trkpt>
      <trkpt lat="48.73783" lon="6.40229">
        <ele>266</ele>
        <time>2011-03-26T01:24:55Z</time>
      </trkpt>
      <trkpt lat="48.73735" lon="6.40195">
        <ele>270</ele>
        <time>2011-03-26T01:25:15Z</time>
      </trkpt>
      <trkpt lat="48.73537" lon="6.40023">
        <ele>272</ele>
        <time>2011-03-26T01:25:54Z</time>
      </trkpt>
      <trkpt lat="48.73456" lon="6.39936">
        <ele>273</ele>
        <time>2011-03-26T01:26:11Z</time>
      </trkpt>
      <trkpt lat="48.73351" lon="6.39808">
        <ele>273</ele>
        <time>2011-03-26T01:26:29Z</time>
      </trkpt>
      <trkpt lat="48.73329" lon="6.39757">
        <ele>272</ele>
        <time>2011-03-26T01:26:34Z</time>
      </trkpt>
      <trkpt lat="48.73312" lon="6.397">
        <ele>272</ele>
        <time>2011-03-26T01:26:40Z</time>
      </trkpt>
      <trkpt lat="48.73289" lon="6.39599">
        <ele>272</ele>
        <time>2011-03-26T01:26:49Z</time>
      </trkpt>
      <trkpt lat="48.73282" lon="6.39559">
        <ele>271</ele>
        <time>2011-03-26T01:26:53Z</time>
      </trkpt>
      <trkpt lat="48.73257" lon="6.39221">
        <ele>266</ele>
        <time>2011-03-26T01:27:23Z</time>
      </trkpt>
      <trkpt lat="48.73215" lon="6.39081">
        <ele>263</ele>
        <time>2011-03-26T01:27:36Z</time>
      </trkpt>
      <trkpt lat="48.73215" lon="6.39081">
        <ele>263</ele>
        <time>2011-03-26T01:27:37Z</time>
      </trkpt>
      <trkpt lat="48.73142" lon="6.38844">
        <ele>258</ele>
        <time>2011-03-26T01:28:00Z</time>
      </trkpt>
      <trkpt lat="48.73104" lon="6.38733">
        <ele>257</ele>
        <time>2011-03-26T01:28:11Z</time>
      </trkpt>
      <trkpt lat="48.73055" lon="6.38703">
        <ele>257</ele>
        <time>2011-03-26T01:28:19Z</time>
      </trkpt>
      <trkpt lat="48.73015" lon="6.38685">
        <ele>258</ele>
        <time>2011-03-26T01:28:28Z</time>
      </trkpt>
      <trkpt lat="48.73005" lon="6.38675">
        <ele>258</ele>
        <time>2011-03-26T01:28:31Z</time>
      </trkpt>
      <trkpt lat="48.72985" lon="6.38632">
        <ele>259</ele>
        <time>2011-03-26T01:28:39Z</time>
      </trkpt>
      <trkpt lat="48.72972" lon="6.38584">
        <ele>260</ele>
        <time>2011-03-26T01:28:47Z</time>
      </trkpt>
      <trkpt lat="48.72949" lon="6.38582">
        <ele>260</ele>
        <time>2011-03-26T01:28:51Z</time>
      </trkpt>
      <trkpt lat="48.72883" lon="6.38548">
        <ele>261</ele>
        <time>2011-03-26T01:29:03Z</time>
      </trkpt>
      <trkpt lat="48.72798" lon="6.38493">
        <ele>262</ele>
        <time>2011-03-26T01:29:20Z</time>
      </trkpt>
      <trkpt lat="48.7277" lon="6.38488">
        <ele>262</ele>
        <time>2011-03-26T01:29:23Z</time>
      </trkpt>
      <trkpt lat="48.72726" lon="6.3849">
        <ele>262</ele>
        <time>2011-03-26T01:29:29Z</time>
      </trkpt>
      <trkpt lat="48.72684" lon="6.38519">
        <ele>262</ele>
        <time>2011-03-26T01:29:35Z</time>
      </trkpt>
      <trkpt lat="48.72613" lon="6.38585">
        <ele>263</ele>
        <time>2011-03-26T01:29:54Z</time>
      </trkpt>
      <trkpt lat="48.72559" lon="6.3861">
        <ele>265</ele>
        <time>2011-03-26T01:30:06Z</time>
      </trkpt>
      <trkpt lat="48.72448" lon="6.3865">
        <ele>267</ele>
        <time>2011-03-26T01:30:29Z</time>
      </trkpt>
      <trkpt lat="48.72219" lon="6.38782">
        <ele>278</ele>
        <time>2011-03-26T01:31:46Z</time>
      </trkpt>
      <trkpt lat="48.72197" lon="6.3879">
        <ele>278</ele>
        <time>2011-03-26T01:31:49Z</time>
      </trkpt>
      <trkpt lat="48.7215" lon="6.38793">
        <ele>278</ele>
        <time>2011-03-26T01:31:55Z</time>
      </trkpt>
      <trkpt lat="48.72122" lon="6.38788">
        <ele>278</ele>
        <time>2011-03-26T01:31:59Z</time>
      </trkpt>
      <trkpt lat="48.72092" lon="6.38775">
        <ele>277</ele>
        <time>2011-03-26T01:32:03Z</time>
      </trkpt>
      <trkpt lat="48.72052" lon="6.38737">
        <ele>276</ele>
        <time>2011-03-26T01:32:10Z</time>
      </trkpt>
      <trkpt lat="48.72014" lon="6.38713">
        <ele>275</ele>
        <time>2011-03-26T01:32:15Z</time>
      </trkpt>
      <trkpt lat="48.71858" lon="6.38656">
        <ele>270</ele>
        <time>2011-03-26T01:32:37Z</time>
      </trkpt>
      <trkpt lat="48.71732" lon="6.38632">
        <ele>268</ele>
        <time>2011-03-26T01:32:54Z</time>
      </trkpt>
      <trkpt lat="48.71589" lon="6.38592">
        <ele>263</ele>
        <time>2011-03-26T01:33:13Z</time>
      </trkpt>
      <trkpt lat="48.71441" lon="6.38559">
        <ele>254</ele>
        <time>2011-03-26T01:33:33Z</time>
      </trkpt>
      <trkpt lat="48.714" lon="6.38553">
        <ele>251</ele>
        <time>2011-03-26T01:33:38Z</time>
      </trkpt>
      <trkpt lat="48.7128" lon="6.38559">
        <ele>244</ele>
        <time>2011-03-26T01:33:54Z</time>
      </trkpt>
      <trkpt lat="48.71232" lon="6.38575">
        <ele>243</ele>
        <time>2011-03-26T01:34:01Z</time>
      </trkpt>
      <trkpt lat="48.70837" lon="6.38876">
        <ele>243</ele>
        <time>2011-03-26T01:35:00Z</time>
      </trkpt>
      <trkpt lat="48.70837" lon="6.38876">
        <ele>243</ele>
        <time>2011-03-26T01:35:01Z</time>
      </trkpt>
      <trkpt lat="48.70758" lon="6.38934">
        <ele>244</ele>
        <time>2011-03-26T01:35:20Z</time>
      </trkpt>
      <trkpt lat="48.70745" lon="6.38937">
        <ele>245</ele>
        <time>2011-03-26T01:35:23Z</time>
      </trkpt>
      <trkpt lat="48.70719" lon="6.38929">
        <ele>244</ele>
        <time>2011-03-26T01:35:26Z</time>
      </trkpt>
      <trkpt lat="48.70664" lon="6.38898">
        <ele>242</ele>
        <time>2011-03-26T01:35:34Z</time>
      </trkpt>
      <trkpt lat="48.70645" lon="6.38894">
        <ele>242</ele>
        <time>2011-03-26T01:35:37Z</time>
      </trkpt>
      <trkpt lat="48.70629" lon="6.38897">
        <ele>241</ele>
        <time>2011-03-26T01:35:39Z</time>
      </trkpt>
      <trkpt lat="48.70609" lon="6.38905">
        <ele>240</ele>
        <time>2011-03-26T01:35:41Z</time>
      </trkpt>
      <trkpt lat="48.70557" lon="6.38943">
        <ele>239</ele>
        <time>2011-03-26T01:35:49Z</time>
      </trkpt>
      <trkpt lat="48.70495" lon="6.39002">
        <ele>237</ele>
        <time>2011-03-26T01:35:59Z</time>
      </trkpt>
      <trkpt lat="48.70487" lon="6.38999">
        <ele>237</ele>
        <time>2011-03-26T01:36:00Z</time>
      </trkpt>
      <trkpt lat="48.70414" lon="6.38903">
        <ele>235</ele>
        <time>2011-03-26T01:36:13Z</time>
      </trkpt>
      <trkpt lat="48.7038" lon="6.3893">
        <ele>235</ele>
        <time>2011-03-26T01:36:18Z</time>
      </trkpt>
      <trkpt lat="48.70351" lon="6.38946">
        <ele>235</ele>
        <time>2011-03-26T01:36:22Z</time>
      </trkpt>
      <trkpt lat="48.70312" lon="6.38959">
        <ele>235</ele>
        <time>2011-03-26T01:36:28Z</time>
      </trkpt>
      <trkpt lat="48.69968" lon="6.39019">
        <ele>232</ele>
        <time>2011-03-26T01:37:14Z</time>
      </trkpt>
      <trkpt lat="48.69686" lon="6.39079">
        <ele>251</ele>
        <time>2011-03-26T01:39:08Z</time>
      </trkpt>
      <trkpt lat="48.69639" lon="6.39112">
        <ele>248</ele>
        <time>2011-03-26T01:39:15Z</time>
      </trkpt>
      <trkpt lat="48.69356" lon="6.39369">
        <ele>236</ele>
        <time>2011-03-26T01:39:59Z</time>
      </trkpt>
      <trkpt lat="48.69169" lon="6.3953">
        <ele>230</ele>
        <time>2011-03-26T01:40:28Z</time>
      </trkpt>
      <trkpt lat="48.69088" lon="6.39592">
        <ele>227</ele>
        <time>2011-03-26T01:40:40Z</time>
      </trkpt>
      <trkpt lat="48.69003" lon="6.39647">
        <ele>225</ele>
        <time>2011-03-26T01:40:52Z</time>
      </trkpt>
      <trkpt lat="48.68935" lon="6.3971">
        <ele>225</ele>
        <time>2011-03-26T01:41:05Z</time>
      </trkpt>
      <trkpt lat="48.68229" lon="6.40164">
        <ele>231</ele>
        <time>2011-03-26T01:43:09Z</time>
      </trkpt>
      <trkpt lat="48.67778" lon="6.40431">
        <ele>236</ele>
        <time>2011-03-26T01:44:34Z</time>
      </trkpt>
      <trkpt lat="48.6753" lon="6.4056">
        <ele>236</ele>
        <time>2011-03-26T01:45:09Z</time>
      </trkpt>
      <trkpt lat="48.6753" lon="6.4056">
        <ele>236</ele>
        <time>2011-03-26T01:45:10Z</time>
      </trkpt>
      <trkpt lat="48.67338" lon="6.40661">
        <ele>240</ele>
        <time>2011-03-26T01:45:53Z</time>
      </trkpt>
      <trkpt lat="48.67071" lon="6.40791">
        <ele>246</ele>
        <time>2011-03-26T01:46:54Z</time>
      </trkpt>
      <trkpt lat="48.67056" lon="6.40741">
        <ele>245</ele>
        <time>2011-03-26T01:46:59Z</time>
      </trkpt>
      <trkpt lat="48.6701" lon="6.40659">
        <ele>245</ele>
        <time>2011-03-26T01:47:09Z</time>
      </trkpt>
      <trkpt lat="48.67002" lon="6.40654">
        <ele>245</ele>
        <time>2011-03-26T01:47:11Z</time>
      </trkpt>
      <trkpt lat="48.66983" lon="6.40656">
        <ele>245</ele>
        <time>2011-03-26T01:47:15Z</time>
      </trkpt>
      <trkpt lat="48.66934" lon="6.40678">
        <ele>246</ele>
        <time>2011-03-26T01:47:26Z</time>
      </trkpt>
      <trkpt lat="48.66917" lon="6.40678">
        <ele>247</ele>
        <time>2011-03-26T01:47:30Z</time>
      </trkpt>
      <trkpt lat="48.66891" lon="6.40626">
        <ele>248</ele>
        <time>2011-03-26T01:47:41Z</time>
      </trkpt>
      <trkpt lat="48.6683" lon="6.40475">
        <ele>252</ele>
        <time>2011-03-26T01:48:11Z</time>
      </trkpt>
      <trkpt lat="48.66724" lon="6.40233">
        <ele>264</ele>
        <time>2011-03-26T01:49:25Z</time>
      </trkpt>
      <trkpt lat="48.66616" lon="6.40046">
        <ele>263</ele>
        <time>2011-03-26T01:49:47Z</time>
      </trkpt>
      <trkpt lat="48.66523" lon="6.39861">
        <ele>260</ele>
        <time>2011-03-26T01:50:07Z</time>
      </trkpt>
      <trkpt lat="48.66457" lon="6.398">
        <ele>257</ele>
        <time>2011-03-26T01:50:17Z</time>
      </trkpt>
      <trkpt lat="48.66441" lon="6.3978">
        <ele>257</ele>
        <time>2011-03-26T01:50:20Z</time>
      </trkpt>
      <trkpt lat="48.66425" lon="6.39757">
        <ele>257</ele>
        <time>2011-03-26T01:50:25Z</time>
      </trkpt>
      <trkpt lat="48.66395" lon="6.39699">
        <ele>258</ele>
        <time>2011-03-26T01:50:37Z</time>
      </trkpt>
      <trkpt lat="48.66334" lon="6.39538">
        <ele>262</ele>
        <time>2011-03-26T01:51:06Z</time>
      </trkpt>
      <trkpt lat="48.66317" lon="6.39435">
        <ele>263</ele>
        <time>2011-03-26T01:51:21Z</time>
      </trkpt>
      <trkpt lat="48.66284" lon="6.39344">
        <ele>265</ele>
        <time>2011-03-26T01:51:36Z</time>
      </trkpt>
      <trkpt lat="48.66255" lon="6.39248">
        <ele>264</ele>
        <time>2011-03-26T01:51:46Z</time>
      </trkpt>
      <trkpt lat="48.66243" lon="6.39201">
        <ele>264</ele>
        <time>2011-03-26T01:51:50Z</time>
      </trkpt>
      <trkpt lat="48.66242" lon="6.39094">
        <ele>262</ele>
        <time>2011-03-26T01:52:00Z</time>
      </trkpt>
      <trkpt lat="48.66273" lon="6.3895">
        <ele>260</ele>
        <time>2011-03-26T01:52:13Z</time>
      </trkpt>
      <trkpt lat="48.66277" lon="6.38925">
        <ele>259</ele>
        <time>2011-03-26T01:52:15Z</time>
      </trkpt>
      <trkpt lat="48.66276" lon="6.38886">
        <ele>258</ele>
        <time>2011-03-26T01:52:19Z</time>
      </trkpt>
      <trkpt lat="48.66216" lon="6.38647">
        <ele>254</ele>
        <time>2011-03-26T01:52:41Z</time>
      </trkpt>
      <trkpt lat="48.6617" lon="6.38405">
        <ele>253</ele>
        <time>2011-03-26T01:53:04Z</time>
      </trkpt>
      <trkpt lat="48.66168" lon="6.38358">
        <ele>252</ele>
        <time>2011-03-26T01:53:08Z</time>
      </trkpt>
      <trkpt lat="48.66188" lon="6.38276">
        <ele>252</ele>
        <time>2011-03-26T01:53:15Z</time>
      </trkpt>
      <trkpt lat="48.66186" lon="6.38243">
        <ele>252</ele>
        <time>2011-03-26T01:53:18Z</time>
      </trkpt>
      <trkpt lat="48.66147" lon="6.38172">
        <ele>253</ele>
        <time>2011-03-26T01:53:31Z</time>
      </trkpt>
      <trkpt lat="48.66124" lon="6.38119">
        <ele>254</ele>
        <time>2011-03-26T01:53:40Z</time>
      </trkpt>
      <trkpt lat="48.66098" lon="6.38048">
        <ele>253</ele>
        <time>2011-03-26T01:53:47Z</time>
      </trkpt>
      <trkpt lat="48.66091" lon="6.38006">
        <ele>253</ele>
        <time>2011-03-26T01:53:51Z</time>
      </trkpt>
      <trkpt lat="48.66093" lon="6.37992">
        <ele>253</ele>
        <time>2011-03-26T01:53:52Z</time>
      </trkpt>
      <trkpt lat="48.6611" lon="6.37951">
        <ele>253</ele>
        <time>2011-03-26T01:53:57Z</time>
      </trkpt>
      <trkpt lat="48.66173" lon="6.37814">
        <ele>249</ele>
        <time>2011-03-26T01:54:11Z</time>
      </trkpt>
      <trkpt lat="48.66201" lon="6.37743">
        <ele>249</ele>
        <time>2011-03-26T01:54:21Z</time>
      </trkpt>
      <trkpt lat="48.66213" lon="6.3769">
        <ele>250</ele>
        <time>2011-03-26T01:54:28Z</time>
      </trkpt>
      <trkpt lat="48.66213" lon="6.37661">
        <ele>250</ele>
        <time>2011-03-26T01:54:31Z</time>
      </trkpt>
      <trkpt lat="48.6619" lon="6.37475">
        <ele>252</ele>
        <time>2011-03-26T01:54:55Z</time>
      </trkpt>
      <trkpt lat="48.66191" lon="6.3736">
        <ele>251</ele>
        <time>2011-03-26T01:55:05Z</time>
      </trkpt>
      <trkpt lat="48.66203" lon="6.37275">
        <ele>251</ele>
        <time>2011-03-26T01:55:13Z</time>
      </trkpt>
      <trkpt lat="48.66205" lon="6.37232">
        <ele>251</ele>
        <time>2011-03-26T01:55:18Z</time>
      </trkpt>
      <trkpt lat="48.66186" lon="6.37143">
        <ele>252</ele>
        <time>2011-03-26T01:55:29Z</time>
      </trkpt>
      <trkpt lat="48.66186" lon="6.37143">
        <ele>252</ele>
        <time>2011-03-26T01:55:30Z</time>
      </trkpt>
      <trkpt lat="48.66172" lon="6.37077">
        <ele>251</ele>
        <time>2011-03-26T01:55:36Z</time>
      </trkpt>
      <trkpt lat="48.66171" lon="6.37052">
        <ele>251</ele>
        <time>2011-03-26T01:55:38Z</time>
      </trkpt>
      <trkpt lat="48.66172" lon="6.37026">
        <ele>251</ele>
        <time>2011-03-26T01:55:40Z</time>
      </trkpt>
      <trkpt lat="48.6618" lon="6.36979">
        <ele>251</ele>
        <time>2011-03-26T01:55:45Z</time>
      </trkpt>
      <trkpt lat="48.66209" lon="6.36873">
        <ele>250</ele>
        <time>2011-03-26T01:55:55Z</time>
      </trkpt>
      <trkpt lat="48.66259" lon="6.36729">
        <ele>249</ele>
        <time>2011-03-26T01:56:09Z</time>
      </trkpt>
      <trkpt lat="48.66261" lon="6.36706">
        <ele>249</ele>
        <time>2011-03-26T01:56:13Z</time>
      </trkpt>
      <trkpt lat="48.66221" lon="6.36546">
        <ele>254</ele>
        <time>2011-03-26T01:56:46Z</time>
      </trkpt>
      <trkpt lat="48.66191" lon="6.36455">
        <ele>255</ele>
        <time>2011-03-26T01:57:00Z</time>
      </trkpt>
      <trkpt lat="48.66142" lon="6.36528">
        <ele>256</ele>
        <time>2011-03-26T01:57:13Z</time>
      </trkpt>
      <trkpt lat="48.66074" lon="6.36658">
        <ele>258</ele>
        <time>2011-03-26T01:57:35Z</time>
      </trkpt>
      <trkpt lat="48.66029" lon="6.36727">
        <ele>259</ele>
        <time>2011-03-26T01:57:51Z</time>
      </trkpt>
      <trkpt lat="48.65881" lon="6.36911">
        <ele>265</ele>
        <time>2011-03-26T01:58:37Z</time>
      </trkpt>
      <trkpt lat="48.65876" lon="6.36947">
        <ele>265</ele>
        <time>2011-03-26T01:58:41Z</time>
      </trkpt>
      <trkpt lat="48.65875" lon="6.37016">
        <ele>265</ele>
        <time>2011-03-26T01:58:48Z</time>
      </trkpt>
      <trkpt lat="48.65869" lon="6.37041">
        <ele>265</ele>
        <time>2011-03-26T01:58:50Z</time>
      </trkpt>
      <trkpt lat="48.65791" lon="6.37229">
        <ele>266</ele>
        <time>2011-03-26T01:59:12Z</time>
      </trkpt>
      <trkpt lat="48.65743" lon="6.373">
        <ele>267</ele>
        <time>2011-03-26T01:59:27Z</time>
      </trkpt>
      <trkpt lat="48.65686" lon="6.37372">
        <ele>269</ele>
        <time>2011-03-26T01:59:43Z</time>
      </trkpt>
      <trkpt lat="48.65639" lon="6.3745">
        <ele>268</ele>
        <time>2011-03-26T01:59:53Z</time>
      </trkpt>
      <trkpt lat="48.65629" lon="6.37475">
        <ele>268</ele>
        <time>2011-03-26T01:59:55Z</time>
      </trkpt>
      <trkpt lat="48.6561" lon="6.37545">
        <ele>268</ele>
        <time>2011-03-26T02:00:02Z</time>
      </trkpt>
      <trkpt lat="48.65526" lon="6.37717">
        <ele>271</ele>
        <time>2011-03-26T02:00:33Z</time>
      </trkpt>
      <trkpt lat="48.65499" lon="6.37785">
        <ele>272</ele>
        <time>2011-03-26T02:00:47Z</time>
      </trkpt>
      <trkpt lat="48.65423" lon="6.3795">
        <ele>277</ele>
        <time>2011-03-26T02:01:21Z</time>
      </trkpt>
      <trkpt lat="48.65404" lon="6.3801">
        <ele>280</ele>
        <time>2011-03-26T02:01:40Z</time>
      </trkpt>
      <trkpt lat="48.6537" lon="6.38074">
        <ele>284</ele>
        <time>2011-03-26T02:02:03Z</time>
      </trkpt>
      <trkpt lat="48.65304" lon="6.38158">
        <ele>287</ele>
        <time>2011-03-26T02:02:30Z</time>
      </trkpt>
      <trkpt lat="48.65247" lon="6.38264">
        <ele>292</ele>
        <time>2011-03-26T02:02:58Z</time>
      </trkpt>
      <trkpt lat="48.65219" lon="6.38307">
        <ele>291</ele>
        <time>2011-03-26T02:03:03Z</time>
      </trkpt>
      <trkpt lat="48.65154" lon="6.38374">
        <ele>290</ele>
        <time>2011-03-26T02:03:14Z</time>
      </trkpt>
      <trkpt lat="48.65143" lon="6.3839">
        <ele>288</ele>
        <time>2011-03-26T02:03:16Z</time>
      </trkpt>
      <trkpt lat="48.65109" lon="6.38477">
        <ele>282</ele>
        <time>2011-03-26T02:03:25Z</time>
      </trkpt>
      <trkpt lat="48.65101" lon="6.3849">
        <ele>281</ele>
        <time>2011-03-26T02:03:27Z</time>
      </trkpt>
      <trkpt lat="48.65008" lon="6.38578">
        <ele>280</ele>
        <time>2011-03-26T02:03:41Z</time>
      </trkpt>
      <trkpt lat="48.6483" lon="6.38717">
        <ele>277</ele>
        <time>2011-03-26T02:04:08Z</time>
      </trkpt>
      <trkpt lat="48.64752" lon="6.38761">
        <ele>274</ele>
        <time>2011-03-26T02:04:19Z</time>
      </trkpt>
      <trkpt lat="48.6473" lon="6.3879">
        <ele>274</ele>
        <time>2011-03-26T02:04:23Z</time>
      </trkpt>
      <trkpt lat="48.64695" lon="6.38896">
        <ele>271</ele>
        <time>2011-03-26T02:04:33Z</time>
      </trkpt>
      <trkpt lat="48.6467" lon="6.39005">
        <ele>269</ele>
        <time>2011-03-26T02:04:44Z</time>
      </trkpt>
      <trkpt lat="48.64647" lon="6.39145">
        <ele>266</ele>
        <time>2011-03-26T02:04:56Z</time>
      </trkpt>
      <trkpt lat="48.64627" lon="6.39212">
        <ele>265</ele>
        <time>2011-03-26T02:05:03Z</time>
      </trkpt>
      <trkpt lat="48.64607" lon="6.3925">
        <ele>265</ele>
        <time>2011-03-26T02:05:07Z</time>
      </trkpt>
      <trkpt lat="48.64577" lon="6.39291">
        <ele>265</ele>
        <time>2011-03-26T02:05:13Z</time>
      </trkpt>
      <trkpt lat="48.64527" lon="6.39335">
        <ele>261</ele>
        <time>2011-03-26T02:05:20Z</time>
      </trkpt>
      <trkpt lat="48.64489" lon="6.39381">
        <ele>259</ele>
        <time>2011-03-26T02:05:27Z</time>
      </trkpt>
      <trkpt lat="48.64474" lon="6.39417">
        <ele>256</ele>
        <time>2011-03-26T02:05:30Z</time>
      </trkpt>
      <trkpt lat="48.6447" lon="6.39727">
        <ele>237</ele>
        <time>2011-03-26T02:05:58Z</time>
      </trkpt>
      <trkpt lat="48.64465" lon="6.39763">
        <ele>235</ele>
        <time>2011-03-26T02:06:01Z</time>
      </trkpt>
      <trkpt lat="48.64288" lon="6.40112">
        <ele>223</ele>
        <time>2011-03-26T02:06:40Z</time>
      </trkpt>
      <trkpt lat="48.64277" lon="6.40131">
        <ele>222</ele>
        <time>2011-03-26T02:06:42Z</time>
      </trkpt>
      <trkpt lat="48.64255" lon="6.40154">
        <ele>222</ele>
        <time>2011-03-26T02:06:46Z</time>
      </trkpt>
      <trkpt lat="48.64272" lon="6.40094">
        <ele>222</ele>
        <time>2011-03-26T02:06:52Z</time>
      </trkpt>
      <trkpt lat="48.64277" lon="6.39979">
        <ele>221</ele>
        <time>2011-03-26T02:07:02Z</time>
      </trkpt>
      <trkpt lat="48.64312" lon="6.39842">
        <ele>221</ele>
        <time>2011-03-26T02:07:15Z</time>
      </trkpt>
      <trkpt lat="48.64317" lon="6.39767">
        <ele>219</ele>
        <time>2011-03-26T02:07:21Z</time>
      </trkpt>
      <trkpt lat="48.64313" lon="6.39699">
        <ele>219</ele>
        <time>2011-03-26T02:07:27Z</time>
      </trkpt>
      <trkpt lat="48.64305" lon="6.39653">
        <ele>219</ele>
        <time>2011-03-26T02:07:33Z</time>
      </trkpt>
      <trkpt lat="48.64279" lon="6.39574">
        <ele>219</ele>
        <time>2011-03-26T02:07:42Z</time>
      </trkpt>
      <trkpt lat="48.64257" lon="6.39538">
        <ele>220</ele>
        <time>2011-03-26T02:07:48Z</time>
      </trkpt>
      <trkpt lat="48.64236" lon="6.39513">
        <ele>220</ele>
        <time>2011-03-26T02:07:52Z</time>
      </trkpt>
      <trkpt lat="48.64211" lon="6.39488">
        <ele>220</ele>
        <time>2011-03-26T02:07:57Z</time>
      </trkpt>
      <trkpt lat="48.64171" lon="6.39461">
        <ele>221</ele>
        <time>2011-03-26T02:08:05Z</time>
      </trkpt>
      <trkpt lat="48.64171" lon="6.39461">
        <ele>221</ele>
        <time>2011-03-26T02:08:06Z</time>
      </trkpt>
      <trkpt lat="48.64067" lon="6.39403">
        <ele>217</ele>
        <time>2011-03-26T02:08:21Z</time>
      </trkpt>
      <trkpt lat="48.6404" lon="6.39377">
        <ele>217</ele>
        <time>2011-03-26T02:08:25Z</time>
      </trkpt>
      <trkpt lat="48.63929" lon="6.39214">
        <ele>217</ele>
        <time>2011-03-26T02:08:46Z</time>
      </trkpt>
      <trkpt lat="48.639" lon="6.39147">
        <ele>217</ele>
        <time>2011-03-26T02:08:53Z</time>
      </trkpt>
      <trkpt lat="48.63883" lon="6.38985">
        <ele>217</ele>
        <time>2011-03-26T02:09:07Z</time>
      </trkpt>
      <trkpt lat="48.6385" lon="6.38761">
        <ele>214</ele>
        <time>2011-03-26T02:09:28Z</time>
      </trkpt>
      <trkpt lat="48.6385" lon="6.38723">
        <ele>214</ele>
        <time>2011-03-26T02:09:31Z</time>
      </trkpt>
      <trkpt lat="48.63859" lon="6.3865">
        <ele>214</ele>
        <time>2011-03-26T02:09:38Z</time>
      </trkpt>
      <trkpt lat="48.6386" lon="6.38614">
        <ele>214</ele>
        <time>2011-03-26T02:09:41Z</time>
      </trkpt>
      <trkpt lat="48.63853" lon="6.38356">
        <ele>214</ele>
        <time>2011-03-26T02:10:03Z</time>
      </trkpt>
      <trkpt lat="48.63846" lon="6.38322">
        <ele>214</ele>
        <time>2011-03-26T02:10:07Z</time>
      </trkpt>
      <trkpt lat="48.63821" lon="6.38232">
        <ele>214</ele>
        <time>2011-03-26T02:10:15Z</time>
      </trkpt>
      <trkpt lat="48.63821" lon="6.38232">
        <ele>214</ele>
        <time>2011-03-26T02:10:16Z</time>
      </trkpt>
      <trkpt lat="48.63732" lon="6.37898">
        <ele>213</ele>
        <time>2011-03-26T02:10:48Z</time>
      </trkpt>
      <trkpt lat="48.63731" lon="6.37887">
        <ele>213</ele>
        <time>2011-03-26T02:10:50Z</time>
      </trkpt>
      <trkpt lat="48.63738" lon="6.37865">
        <ele>213</ele>
        <time>2011-03-26T02:10:53Z</time>
      </trkpt>
      <trkpt lat="48.63759" lon="6.37816">
        <ele>214</ele>
        <time>2011-03-26T02:11:01Z</time>
      </trkpt>
      <trkpt lat="48.63758" lon="6.37748">
        <ele>215</ele>
        <time>2011-03-26T02:11:10Z</time>
      </trkpt>
      <trkpt lat="48.63732" lon="6.37731">
        <ele>214</ele>
        <time>2011-03-26T02:11:14Z</time>
      </trkpt>
      <trkpt lat="48.6372" lon="6.37717">
        <ele>214</ele>
        <time>2011-03-26T02:11:16Z</time>
      </trkpt>
      <trkpt lat="48.63683" lon="6.37631">
        <ele>213</ele>
        <time>2011-03-26T02:11:25Z</time>
      </trkpt>
      <trkpt lat="48.63683" lon="6.37631">
        <ele>213</ele>
        <time>2011-03-26T02:11:26Z</time>
      </trkpt>
      <trkpt lat="48.63618" lon="6.37477">
        <ele>213</ele>
        <time>2011-03-26T02:11:42Z</time>
      </trkpt>
      <trkpt lat="48.63589" lon="6.37341">
        <ele>214</ele>
        <time>2011-03-26T02:11:59Z</time>
      </trkpt>
      <trkpt lat="48.63525" lon="6.37183">
        <ele>214</ele>
        <time>2011-03-26T02:12:15Z</time>
      </trkpt>
      <trkpt lat="48.63467" lon="6.37064">
        <ele>213</ele>
        <time>2011-03-26T02:12:28Z</time>
      </trkpt>
      <trkpt lat="48.63393" lon="6.36902">
        <ele>212</ele>
        <time>2011-03-26T02:12:46Z</time>
      </trkpt>
      <trkpt lat="48.63393" lon="6.36898">
        <ele>211</ele>
        <time>2011-03-26T02:12:46Z</time>
      </trkpt>
      <trkpt lat="48.63325" lon="6.36926">
        <ele>208</ele>
        <time>2011-03-26T02:12:56Z</time>
      </trkpt>
      <trkpt lat="48.63285" lon="6.36968">
        <ele>207</ele>
        <time>2011-03-26T02:13:02Z</time>
      </trkpt>
      <trkpt lat="48.63222" lon="6.37024">
        <ele>207</ele>
        <time>2011-03-26T02:13:15Z</time>
      </trkpt>
      <trkpt lat="48.63112" lon="6.37086">
        <ele>209</ele>
        <time>2011-03-26T02:13:35Z</time>
      </trkpt>
      <trkpt lat="48.63105" lon="6.37061">
        <ele>208</ele>
        <time>2011-03-26T02:13:38Z</time>
      </trkpt>
      <trkpt lat="48.63105" lon="6.37061">
        <ele>208</ele>
        <time>2011-03-26T02:13:39Z</time>
      </trkpt>
      <trkpt lat="48.63061" lon="6.36913">
        <ele>206</ele>
        <time>2011-03-26T02:13:53Z</time>
      </trkpt>
      <trkpt lat="48.63008" lon="6.36757">
        <ele>206</ele>
        <time>2011-03-26T02:14:09Z</time>
      </trkpt>
      <trkpt lat="48.62952" lon="6.36556">
        <ele>204</ele>
        <time>2011-03-26T02:14:28Z</time>
      </trkpt>
      <trkpt lat="48.62883" lon="6.36144">
        <ele>205</ele>
        <time>2011-03-26T02:15:09Z</time>
      </trkpt>
      <trkpt lat="48.62842" lon="6.36039">
        <ele>204</ele>
        <time>2011-03-26T02:15:20Z</time>
      </trkpt>
      <trkpt lat="48.62825" lon="6.35963">
        <ele>204</ele>
        <time>2011-03-26T02:15:27Z</time>
      </trkpt>
      <trkpt lat="48.62812" lon="6.35881">
        <ele>204</ele>
        <time>2011-03-26T02:15:39Z</time>
      </trkpt>
      <trkpt lat="48.62791" lon="6.35794">
        <ele>206</ele>
        <time>2011-03-26T02:15:51Z</time>
      </trkpt>
      <trkpt lat="48.62721" lon="6.35593">
        <ele>209</ele>
        <time>2011-03-26T02:16:23Z</time>
      </trkpt>
      <trkpt lat="48.62702" lon="6.35451">
        <ele>210</ele>
        <time>2011-03-26T02:16:40Z</time>
      </trkpt>
      <trkpt lat="48.62702" lon="6.35372">
        <ele>210</ele>
        <time>2011-03-26T02:16:47Z</time>
      </trkpt>
      <trkpt lat="48.62691" lon="6.35112">
        <ele>210</ele>
        <time>2011-03-26T02:17:10Z</time>
      </trkpt>
      <trkpt lat="48.62628" lon="6.34863">
        <ele>209</ele>
        <time>2011-03-26T02:17:33Z</time>
      </trkpt>
      <trkpt lat="48.62584" lon="6.34759">
        <ele>210</ele>
        <time>2011-03-26T02:17:52Z</time>
      </trkpt>
      <trkpt lat="48.62543" lon="6.34648">
        <ele>213</ele>
        <time>2011-03-26T02:18:11Z</time>
      </trkpt>
      <trkpt lat="48.62554" lon="6.34636">
        <ele>212</ele>
        <time>2011-03-26T02:18:13Z</time>
      </trkpt>
      <trkpt lat="48.62657" lon="6.34453">
        <ele>208</ele>
        <time>2011-03-26T02:18:34Z</time>
      </trkpt>
      <trkpt lat="48.62694" lon="6.34395">
        <ele>207</ele>
        <time>2011-03-26T02:18:42Z</time>
      </trkpt>
      <trkpt lat="48.62715" lon="6.34369">
        <ele>207</ele>
        <time>2011-03-26T02:18:45Z</time>
      </trkpt>
      <trkpt lat="48.62782" lon="6.34303">
        <ele>207</ele>
        <time>2011-03-26T02:18:56Z</time>
      </trkpt>
      <trkpt lat="48.628" lon="6.34265">
        <ele>207</ele>
        <time>2011-03-26T02:19:04Z</time>
      </trkpt>
      <trkpt lat="48.6281" lon="6.34236">
        <ele>208</ele>
        <time>2011-03-26T02:19:09Z</time>
      </trkpt>
      <trkpt lat="48.62863" lon="6.33981">
        <ele>214</ele>
        <time>2011-03-26T02:19:54Z</time>
      </trkpt>
      <trkpt lat="48.62913" lon="6.33789">
        <ele>211</ele>
        <time>2011-03-26T02:20:13Z</time>
      </trkpt>
      <trkpt lat="48.63136" lon="6.32832">
        <ele>208</ele>
        <time>2011-03-26T02:21:42Z</time>
      </trkpt>
      <trkpt lat="48.63186" lon="6.3264">
        <ele>206</ele>
        <time>2011-03-26T02:22:01Z</time>
      </trkpt>
      <trkpt lat="48.632" lon="6.32618">
        <ele>206</ele>
        <time>2011-03-26T02:22:06Z</time>
      </trkpt>
      <trkpt lat="48.63246" lon="6.32579">
        <ele>208</ele>
        <time>2011-03-26T02:22:19Z</time>
      </trkpt>
      <trkpt lat="48.63265" lon="6.32557">
        <ele>209</ele>
        <time>2011-03-26T02:22:25Z</time>
      </trkpt>
      <trkpt lat="48.6332" lon="6.32423">
        <ele>210</ele>
        <time>2011-03-26T02:22:43Z</time>
      </trkpt>
      <trkpt lat="48.63314" lon="6.32418">
        <ele>209</ele>
        <time>2011-03-26T02:22:44Z</time>
      </trkpt>
      <trkpt lat="48.63297" lon="6.32449">
        <ele>209</ele>
        <time>2011-03-26T02:22:48Z</time>
      </trkpt>
      <trkpt lat="48.63284" lon="6.32486">
        <ele>209</ele>
        <time>2011-03-26T02:22:52Z</time>
      </trkpt>
      <trkpt lat="48.63284" lon="6.32486">
        <ele>209</ele>
        <time>2011-03-26T02:22:53Z</time>
      </trkpt>
      <trkpt lat="48.63266" lon="6.32532">
        <ele>208</ele>
        <time>2011-03-26T02:22:57Z</time>
      </trkpt>
      <trkpt lat="48.63255" lon="6.3255">
        <ele>207</ele>
        <time>2011-03-26T02:22:59Z</time>
      </trkpt>
      <trkpt lat="48.63196" lon="6.32607">
        <ele>206</ele>
        <time>2011-03-26T02:23:09Z</time>
      </trkpt>
      <trkpt lat="48.63185" lon="6.32624">
        <ele>206</ele>
        <time>2011-03-26T02:23:12Z</time>
      </trkpt>
      <trkpt lat="48.63158" lon="6.32723">
        <ele>207</ele>
        <time>2011-03-26T02:23:25Z</time>
      </trkpt>
      <trkpt lat="48.63136" lon="6.32832">
        <ele>208</ele>
        <time>2011-03-26T02:23:38Z</time>
      </trkpt>
      <trkpt lat="48.63133" lon="6.32798">
        <ele>207</ele>
        <time>2011-03-26T02:23:41Z</time>
      </trkpt>
      <trkpt lat="48.63157" lon="6.32704">
        <ele>207</ele>
        <time>2011-03-26T02:23:50Z</time>
      </trkpt>
      <trkpt lat="48.63133" lon="6.32798">
        <ele>207</ele>
        <time>2011-03-26T02:23:59Z</time>
      </trkpt>
      <trkpt lat="48.63136" lon="6.32832">
        <ele>206</ele>
        <time>2011-03-26T02:24:02Z</time>
      </trkpt>
      <trkpt lat="48.63188" lon="6.32635">
        <ele>206</ele>
        <time>2011-03-26T02:24:21Z</time>
      </trkpt>
      <trkpt lat="48.632" lon="6.32618">
        <ele>206</ele>
        <time>2011-03-26T02:24:25Z</time>
      </trkpt>
      <trkpt lat="48.63246" lon="6.32579">
        <ele>208</ele>
        <time>2011-03-26T02:24:39Z</time>
      </trkpt>
      <trkpt lat="48.63265" lon="6.32557">
        <ele>209</ele>
        <time>2011-03-26T02:24:45Z</time>
      </trkpt>
      <trkpt lat="48.6333" lon="6.32394">
        <ele>209</ele>
        <time>2011-03-26T02:25:02Z</time>
      </trkpt>
      <trkpt lat="48.63377" lon="6.32288">
        <ele>208</ele>
        <time>2011-03-26T02:25:14Z</time>
      </trkpt>
      <trkpt lat="48.63406" lon="6.32172">
        <ele>208</ele>
        <time>2011-03-26T02:25:24Z</time>
      </trkpt>
      <trkpt lat="48.6353" lon="6.31567">
        <ele>208</ele>
        <time>2011-03-26T02:26:20Z</time>
      </trkpt>
      <trkpt lat="48.63593" lon="6.31454">
        <ele>210</ele>
        <time>2011-03-26T02:26:41Z</time>
      </trkpt>
      <trkpt lat="48.6362" lon="6.31392">
        <ele>212</ele>
        <time>2011-03-26T02:26:58Z</time>
      </trkpt>
      <trkpt lat="48.6364" lon="6.31321">
        <ele>215</ele>
        <time>2011-03-26T02:27:15Z</time>
      </trkpt>
      <trkpt lat="48.63652" lon="6.3124">
        <ele>213</ele>
        <time>2011-03-26T02:27:22Z</time>
      </trkpt>
      <trkpt lat="48.63646" lon="6.31195">
        <ele>212</ele>
        <time>2011-03-26T02:27:26Z</time>
      </trkpt>
      <trkpt lat="48.63637" lon="6.31175">
        <ele>212</ele>
        <time>2011-03-26T02:27:28Z</time>
      </trkpt>
      <trkpt lat="48.6363" lon="6.31164">
        <ele>211</ele>
        <time>2011-03-26T02:27:30Z</time>
      </trkpt>
      <trkpt lat="48.63496" lon="6.3107">
        <ele>205</ele>
        <time>2011-03-26T02:27:49Z</time>
      </trkpt>
      <trkpt lat="48.63477" lon="6.31077">
        <ele>204</ele>
        <time>2011-03-26T02:27:52Z</time>
      </trkpt>
      <trkpt lat="48.63447" lon="6.31109">
        <ele>204</ele>
        <time>2011-03-26T02:27:57Z</time>
      </trkpt>
      <trkpt lat="48.63433" lon="6.31123">
        <ele>204</ele>
        <time>2011-03-26T02:27:59Z</time>
      </trkpt>
      <trkpt lat="48.63388" lon="6.31224">
        <ele>204</ele>
        <time>2011-03-26T02:28:10Z</time>
      </trkpt>
      <trkpt lat="48.63384" lon="6.31238">
        <ele>204</ele>
        <time>2011-03-26T02:28:12Z</time>
      </trkpt>
      <trkpt lat="48.63384" lon="6.31263">
        <ele>204</ele>
        <time>2011-03-26T02:28:15Z</time>
      </trkpt>
      <trkpt lat="48.63393" lon="6.31285">
        <ele>204</ele>
        <time>2011-03-26T02:28:18Z</time>
      </trkpt>
      <trkpt lat="48.63366" lon="6.31348">
        <ele>205</ele>
        <time>2011-03-26T02:28:26Z</time>
      </trkpt>
    </trkseg>
  </trk>
</gpx>